Time;durP1;ratioP1;P1;durP2;ratioP2;P2;SDS_P1;SDS_P2;PMS_P1;PMS_P2;Temp;Humidity;BMP_temperature;BMP_pressure;BME280_temperature;BME280_humidity;BME280_pressure;Samples;Min_cycle;Max_cycle;Signal;HPM_P1;HPM_P2
2023/05/16 00:01:07;;;;;;;;;;;9.00;70.10;;;;;;4124504;28;19926;-84
2023/05/16 00:03:10;;;;;;;;;;;9.00;69.90;;;;;;4123501;28;19941;-84
2023/05/16 00:05:14;;;;;;;;;;;9.00;69.80;;;;;;4142016;28;19928;-85
2023/05/16 00:07:35;;;;;;;;;;;9.00;69.50;;;;;;4141535;28;19906;-86
2023/05/16 00:09:42;;;;;;;;;;;9.00;69.40;;;;;;4139126;28;19922;-86
2023/05/16 00:11:52;;;;;;;;;;;8.80;69.10;;;;;;4122965;28;19945;-85
2023/05/16 00:14:00;;;;;;;;;;;9.30;69.30;;;;;;4129970;28;19988;-86
2023/05/16 00:16:06;;;;;;;;;;;9.10;69.10;;;;;;4122804;28;19998;-86
2023/05/16 00:18:17;;;;;;;;;;;9.00;69.00;;;;;;4109043;28;19911;-85
2023/05/16 00:20:23;;;;;;;;;;;9.00;68.90;;;;;;4122189;28;19922;-86
2023/05/16 00:22:27;;;;;;;;;;;9.00;68.90;;;;;;4101239;28;21566;-85
2023/05/16 00:24:46;;;;;;;;;;;9.00;68.80;;;;;;4106317;28;19937;-86
2023/05/16 00:29:47;;;;;;;;;;;8.90;68.70;;;;;;4121734;28;20092;-84
2023/05/16 00:32:08;;;;;;;;;;;8.70;68.50;;;;;;4135833;28;19930;-84
2023/05/16 00:34:15;;;;;;;;;;;8.90;68.70;;;;;;4136265;28;20236;-86
2023/05/16 00:36:30;;;;;;;;;;;8.80;68.70;;;;;;4126299;28;19918;-84
2023/05/16 00:38:45;;;;;;;;;;;8.90;68.60;;;;;;4108974;28;20606;-85
2023/05/16 00:40:53;;;;;;;;;;;8.80;68.60;;;;;;4120797;28;19922;-84
2023/05/16 00:43:14;;;;;;;;;;;8.80;68.70;;;;;;4135284;28;19973;-84
2023/05/16 00:45:15;;;;;;;;;;;8.80;68.70;;;;;;4134134;28;20205;-84
2023/05/16 00:47:21;;;;;;;;;;;8.90;68.60;;;;;;4119665;28;19922;-84
2023/05/16 00:49:23;;;;;;;;;;;8.80;68.50;;;;;;4136614;28;19909;-85
2023/05/16 00:51:44;;;;;;;;;;;8.80;68.40;;;;;;4138676;28;19929;-86
2023/05/16 00:54:10;;;;;;;;;;;8.90;68.40;;;;;;4126992;28;19918;-86
2023/05/16 00:56:18;;;;;;;;;;;8.90;68.20;;;;;;4106105;28;19932;-84
2023/05/16 00:58:41;;;;;;;;;;;8.80;68.20;;;;;;4120860;28;19922;-85
2023/05/16 01:01:17;;;;;;;;;;;8.80;68.20;;;;;;4141881;23;19965;-85
2023/05/16 01:03:45;;;;;;;;;;;8.80;68.20;;;;;;4126673;28;19917;-85
2023/05/16 01:05:58;;;;;;;;;;;8.70;68.00;;;;;;4106560;28;19972;-84
2023/05/16 01:08:20;;;;;;;;;;;8.80;68.20;;;;;;4122498;28;19918;-84
2023/05/16 01:10:48;;;;;;;;;;;8.90;68.20;;;;;;4141099;28;19914;-85
2023/05/16 01:13:23;;;;;;;;;;;8.90;68.20;;;;;;4138285;28;19948;-85
2023/05/16 01:15:31;;;;;;;;;;;8.90;68.20;;;;;;4107348;28;20500;-84
2023/05/16 01:17:56;;;;;;;;;;;8.90;68.20;;;;;;4136852;28;19928;-84
2023/05/16 01:20:20;;;;;;;;;;;8.90;68.10;;;;;;4137187;28;19918;-85
2023/05/16 01:23:01;;;;;;;;;;;8.90;68.10;;;;;;4138970;28;19917;-85
2023/05/16 01:25:37;;;;;;;;;;;9.00;68.30;;;;;;4137021;28;19918;-85
2023/05/16 01:27:58;;;;;;;;;;;9.00;68.20;;;;;;4138304;28;20226;-85
2023/05/16 01:30:19;;;;;;;;;;;9.00;68.20;;;;;;4139411;28;19933;-85
2023/05/16 01:32:45;;;;;;;;;;;9.00;68.30;;;;;;4135645;28;19968;-86
2023/05/16 01:35:09;;;;;;;;;;;9.00;68.40;;;;;;4128400;28;19924;-85
2023/05/16 01:37:48;;;;;;;;;;;9.00;68.40;;;;;;4125842;28;19960;-86
2023/05/16 01:40:05;;;;;;;;;;;9.00;68.30;;;;;;4100792;28;19919;-84
2023/05/16 01:42:14;;;;;;;;;;;9.00;68.50;;;;;;4137774;28;20048;-84
2023/05/16 01:44:30;;;;;;;;;;;9.00;68.70;;;;;;4108534;28;19975;-85
2023/05/16 01:46:43;;;;;;;;;;;9.20;68.80;;;;;;4136410;28;19925;-85
2023/05/16 01:49:02;;;;;;;;;;;9.10;68.50;;;;;;4123464;28;19918;-85
2023/05/16 01:51:11;;;;;;;;;;;9.10;68.50;;;;;;4108597;28;19926;-84
2023/05/16 01:53:41;;;;;;;;;;;9.10;68.70;;;;;;4121198;28;19996;-85
2023/05/16 01:55:45;;;;;;;;;;;9.20;68.80;;;;;;4127044;28;19928;-85
2023/05/16 01:57:50;;;;;;;;;;;9.10;68.40;;;;;;4136456;28;19938;-84
2023/05/16 01:59:59;;;;;;;;;;;9.20;69.20;;;;;;4105624;28;19925;-84
2023/05/16 02:02:05;;;;;;;;;;;9.30;68.70;;;;;;4123122;28;19926;-85
2023/05/16 02:04:14;;;;;;;;;;;9.20;68.80;;;;;;4108426;28;19922;-84
2023/05/16 02:06:15;;;;;;;;;;;9.30;68.80;;;;;;4123427;28;19928;-84
2023/05/16 02:08:16;;;;;;;;;;;9.30;68.90;;;;;;4106851;28;19918;-85
2023/05/16 02:10:16;;;;;;;;;;;9.30;69.00;;;;;;4127427;28;19913;-85
2023/05/16 02:12:17;;;;;;;;;;;9.20;68.70;;;;;;4107965;28;19918;-85
2023/05/16 02:14:20;;;;;;;;;;;9.20;68.70;;;;;;4111401;28;20013;-84
2023/05/16 02:16:26;;;;;;;;;;;9.30;68.70;;;;;;4115224;28;20292;-85
2023/05/16 02:18:43;;;;;;;;;;;9.10;68.60;;;;;;4123355;28;19924;-83
2023/05/16 02:20:44;;;;;;;;;;;9.20;69.40;;;;;;4138747;28;19944;-84
2023/05/16 02:22:48;;;;;;;;;;;9.30;68.70;;;;;;4121825;28;20020;-85
2023/05/16 02:24:58;;;;;;;;;;;9.30;68.70;;;;;;4103924;28;19918;-87
2023/05/16 02:27:07;;;;;;;;;;;9.30;68.60;;;;;;4099769;28;19926;-86
2023/05/16 02:29:10;;;;;;;;;;;9.20;68.60;;;;;;4108271;28;20025;-85
2023/05/16 02:31:45;;;;;;;;;;;9.30;68.60;;;;;;4124950;28;19918;-86
2023/05/16 02:33:49;;;;;;;;;;;9.30;68.40;;;;;;4113805;28;19953;-84
2023/05/16 02:35:55;;;;;;;;;;;9.30;68.60;;;;;;4118317;28;19921;-84
2023/05/16 02:38:05;;;;;;;;;;;9.30;68.50;;;;;;4105127;28;19918;-85
2023/05/16 02:40:12;;;;;;;;;;;9.30;68.80;;;;;;4108842;28;19915;-85
2023/05/16 02:42:15;;;;;;;;;;;9.30;68.50;;;;;;4112676;28;20098;-85
2023/05/16 02:44:16;;;;;;;;;;;9.40;68.90;;;;;;4120089;28;19924;-85
2023/05/16 02:46:30;;;;;;;;;;;9.20;68.70;;;;;;4121110;28;19969;-84
2023/05/16 02:48:35;;;;;;;;;;;9.30;68.60;;;;;;4111034;28;19954;-85
2023/05/16 02:50:56;;;;;;;;;;;9.30;68.50;;;;;;4136110;28;19914;-84
2023/05/16 02:53:16;;;;;;;;;;;9.40;68.60;;;;;;4126109;28;19917;-85
2023/05/16 02:55:37;;;;;;;;;;;9.40;68.50;;;;;;4135159;28;19924;-85
2023/05/16 02:58:08;;;;;;;;;;;9.30;68.40;;;;;;4124945;28;19920;-84
2023/05/16 03:00:29;;;;;;;;;;;9.30;68.30;;;;;;4138145;28;19924;-83
2023/05/16 03:02:49;;;;;;;;;;;9.30;68.30;;;;;;4142332;28;19926;-85
2023/05/16 03:05:10;;;;;;;;;;;9.30;68.20;;;;;;4125313;28;19922;-85
2023/05/16 03:07:11;;;;;;;;;;;9.30;68.10;;;;;;4107446;28;19985;-85
2023/05/16 03:09:23;;;;;;;;;;;9.20;68.10;;;;;;4107775;28;20412;-84
2023/05/16 03:11:49;;;;;;;;;;;9.30;68.10;;;;;;4123786;28;20028;-84
2023/05/16 03:14:13;;;;;;;;;;;9.30;68.00;;;;;;4125927;28;20004;-84
2023/05/16 03:16:37;;;;;;;;;;;9.30;67.90;;;;;;4135789;28;20160;-85
2023/05/16 03:18:58;;;;;;;;;;;9.20;67.80;;;;;;4125236;28;19921;-84
2023/05/16 03:21:18;;;;;;;;;;;9.30;67.80;;;;;;4140833;28;19940;-85
2023/05/16 03:23:39;;;;;;;;;;;9.30;67.80;;;;;;4140025;28;19913;-84
2023/05/16 03:26:00;;;;;;;;;;;9.40;68.00;;;;;;4142333;28;19922;-85
2023/05/16 03:28:21;;;;;;;;;;;9.30;67.80;;;;;;4127975;28;19925;-85
2023/05/16 03:30:41;;;;;;;;;;;9.40;67.70;;;;;;4138552;28;19913;-85
2023/05/16 03:33:03;;;;;;;;;;;9.40;67.90;;;;;;4138977;28;19936;-83
2023/05/16 03:35:23;;;;;;;;;;;9.30;67.70;;;;;;4129604;28;19980;-85
2023/05/16 03:37:44;;;;;;;;;;;9.30;67.80;;;;;;4140612;28;19918;-84
2023/05/16 03:39:45;;;;;;;;;;;9.40;67.90;;;;;;4122765;28;19922;-85
2023/05/16 03:41:50;;;;;;;;;;;9.40;67.90;;;;;;4107997;28;19921;-85
2023/05/16 03:44:00;;;;;;;;;;;9.30;68.00;;;;;;4108813;28;19914;-85
2023/05/16 03:46:04;;;;;;;;;;;9.30;67.80;;;;;;4124300;28;20343;-85
2023/05/16 03:48:14;;;;;;;;;;;9.30;68.00;;;;;;4129406;28;20021;-84
2023/05/16 03:50:15;;;;;;;;;;;9.30;67.70;;;;;;4118867;28;19918;-85
2023/05/16 03:52:26;;;;;;;;;;;9.20;67.80;;;;;;4141322;28;19914;-84
2023/05/16 03:54:43;;;;;;;;;;;9.20;67.60;;;;;;4110971;28;19926;-84
2023/05/16 03:56:44;;;;;;;;;;;9.30;67.70;;;;;;4120966;28;19917;-84
2023/05/16 03:58:51;;;;;;;;;;;9.40;67.80;;;;;;4123470;28;21189;-85
2023/05/16 04:00:57;;;;;;;;;;;9.30;67.70;;;;;;4105760;28;19942;-84
2023/05/16 04:02:58;;;;;;;;;;;9.30;67.50;;;;;;4140327;28;20310;-84
2023/05/16 04:04:59;;;;;;;;;;;9.30;67.70;;;;;;4138834;28;20191;-84
2023/05/16 04:07:07;;;;;;;;;;;9.20;67.60;;;;;;4139704;28;19991;-83
2023/05/16 04:09:10;;;;;;;;;;;9.30;67.70;;;;;;4110514;28;19997;-85
2023/05/16 04:11:11;;;;;;;;;;;9.30;67.60;;;;;;4119419;28;19933;-85
2023/05/16 04:13:12;;;;;;;;;;;9.40;67.70;;;;;;4135024;28;19932;-85
2023/05/16 04:15:12;;;;;;;;;;;9.30;67.70;;;;;;4124164;28;19917;-84
2023/05/16 04:17:13;;;;;;;;;;;9.20;67.50;;;;;;4136770;28;19922;-83
2023/05/16 04:19:13;;;;;;;;;;;9.30;67.50;;;;;;4133823;28;19940;-86
2023/05/16 04:21:14;;;;;;;;;;;9.30;67.50;;;;;;4122238;28;20088;-87
2023/05/16 04:23:24;;;;;;;;;;;9.20;67.30;;;;;;4123142;28;19918;-84
2023/05/16 04:25:28;;;;;;;;;;;9.30;67.20;;;;;;4118738;28;20267;-85
2023/05/16 04:27:32;;;;;;;;;;;9.40;67.20;;;;;;4115402;28;19917;-84
2023/05/16 04:29:42;;;;;;;;;;;9.40;67.20;;;;;;4121277;28;19922;-86
2023/05/16 04:31:46;;;;;;;;;;;9.20;67.00;;;;;;4124630;28;19970;-84
2023/05/16 04:33:46;;;;;;;;;;;9.20;66.80;;;;;;4136216;28;20298;-84
2023/05/16 04:35:48;;;;;;;;;;;9.20;66.90;;;;;;4103310;28;20036;-84
2023/05/16 04:37:57;;;;;;;;;;;9.30;66.80;;;;;;4105208;28;19930;-85
2023/05/16 04:40:06;;;;;;;;;;;9.30;66.70;;;;;;4108714;28;19918;-85
2023/05/16 04:42:09;;;;;;;;;;;9.30;66.60;;;;;;4122681;28;19989;-85
2023/05/16 04:44:10;;;;;;;;;;;9.30;66.50;;;;;;4124087;28;19945;-84
2023/05/16 04:49:20;;;;;;;;;;;9.20;66.10;;;;;;4132529;28;22173;-84
2023/05/16 04:51:20;;;;;;;;;;;9.20;66.10;;;;;;4125607;28;20544;-85
2023/05/16 04:53:23;;;;;;;;;;;9.20;66.10;;;;;;4108482;28;19973;-84
2023/05/16 04:55:30;;;;;;;;;;;9.30;66.10;;;;;;4123608;28;19914;-85
2023/05/16 04:57:33;;;;;;;;;;;9.20;66.00;;;;;;4102795;28;19921;-85
2023/05/16 04:59:43;;;;;;;;;;;9.20;66.00;;;;;;4120825;28;19922;-85
2023/05/16 05:01:43;;;;;;;;;;;9.20;66.10;;;;;;4107815;28;19929;-84
2023/05/16 05:03:44;;;;;;;;;;;9.30;66.10;;;;;;4124075;28;20352;-85
2023/05/16 05:05:47;;;;;;;;;;;9.30;66.00;;;;;;4123800;28;19984;-85
2023/05/16 05:07:54;;;;;;;;;;;9.30;65.90;;;;;;4120964;28;19934;-85
2023/05/16 05:09:55;;;;;;;;;;;9.20;65.70;;;;;;4119969;28;19929;-85
2023/05/16 05:11:58;;;;;;;;;;;9.40;65.80;;;;;;4122013;28;19913;-85
2023/05/16 05:14:00;;;;;;;;;;;9.30;65.60;;;;;;4110590;28;19922;-83
2023/05/16 05:16:07;;;;;;;;;;;9.50;65.70;;;;;;4107936;28;19942;-84
2023/05/16 05:18:14;;;;;;;;;;;9.40;65.50;;;;;;4111473;28;19915;-85
2023/05/16 05:20:34;;;;;;;;;;;9.40;65.40;;;;;;4120374;28;19922;-85
2023/05/16 05:22:49;;;;;;;;;;;9.50;65.50;;;;;;4117272;28;19930;-87
2023/05/16 05:24:53;;;;;;;;;;;9.30;65.20;;;;;;4126000;28;19934;-83
2023/05/16 05:26:57;;;;;;;;;;;9.40;65.40;;;;;;4134937;28;21784;-84
2023/05/16 05:29:00;;;;;;;;;;;9.40;65.40;;;;;;4120478;28;20009;-84
2023/05/16 05:31:04;;;;;;;;;;;9.50;66.20;;;;;;4115943;28;19922;-85
2023/05/16 05:33:05;;;;;;;;;;;9.40;65.20;;;;;;4109477;28;19929;-85
2023/05/16 05:35:41;;;;;;;;;;;9.50;65.10;;;;;;4116840;28;19921;-84
2023/05/16 05:37:45;;;;;;;;;;;9.40;64.90;;;;;;4120644;28;19917;-85
2023/05/16 05:39:48;;;;;;;;;;;9.40;64.80;;;;;;4127127;28;19914;-84
2023/05/16 05:41:49;;;;;;;;;;;9.40;64.90;;;;;;4124434;28;19977;-86
2023/05/16 05:43:52;;;;;;;;;;;9.50;64.90;;;;;;4144597;28;19917;-84
2023/05/16 05:46:41;;;;;;;;;;;9.40;64.80;;;;;;4123983;28;19989;-83
2023/05/16 05:48:45;;;;;;;;;;;9.50;64.80;;;;;;4124255;28;19917;-83
2023/05/16 05:50:45;;;;;;;;;;;9.60;64.70;;;;;;4131785;28;19924;-83
2023/05/16 05:52:46;;;;;;;;;;;9.60;64.60;;;;;;4105773;28;19948;-83
2023/05/16 05:55:17;;;;;;;;;;;9.60;64.30;;;;;;4101917;28;19926;-82
2023/05/16 05:57:20;;;;;;;;;;;9.50;64.20;;;;;;4138702;28;19914;-82
2023/05/16 05:59:21;;;;;;;;;;;9.60;64.30;;;;;;4096183;28;19923;-84
2023/05/16 06:01:30;;;;;;;;;;;9.70;64.00;;;;;;4093876;28;19965;-85
2023/05/16 06:03:34;;;;;;;;;;;9.60;63.60;;;;;;4089243;28;20554;-83
2023/05/16 06:05:34;;;;;;;;;;;9.70;63.80;;;;;;4123979;28;19936;-83
2023/05/16 06:07:41;;;;;;;;;;;9.70;63.90;;;;;;4130258;28;19965;-84
2023/05/16 06:09:45;;;;;;;;;;;9.70;63.90;;;;;;4120626;28;19914;-84
2023/05/16 06:11:48;;;;;;;;;;;9.70;63.90;;;;;;4113080;28;20004;-84
2023/05/16 06:13:53;;;;;;;;;;;9.70;63.90;;;;;;4117255;28;19925;-84
2023/05/16 06:15:56;;;;;;;;;;;9.70;63.90;;;;;;4117139;28;19965;-85
2023/05/16 06:17:57;;;;;;;;;;;9.70;63.90;;;;;;4126992;28;20042;-84
2023/05/16 06:20:09;;;;;;;;;;;9.70;64.10;;;;;;4118024;28;19928;-85
2023/05/16 06:22:16;;;;;;;;;;;9.80;63.90;;;;;;4107757;28;20588;-84
2023/05/16 06:24:21;;;;;;;;;;;9.80;64.00;;;;;;4125032;28;20443;-85
2023/05/16 06:26:41;;;;;;;;;;;9.80;63.50;;;;;;4139930;28;20368;-83
2023/05/16 06:28:42;;;;;;;;;;;9.80;63.80;;;;;;4123538;28;19922;-84
2023/05/16 06:31:03;;;;;;;;;;;9.80;63.80;;;;;;4127907;28;19943;-83
2023/05/16 06:33:33;;;;;;;;;;;9.80;64.00;;;;;;4130380;28;19917;-84
2023/05/16 06:35:44;;;;;;;;;;;10.00;64.00;;;;;;4126603;28;19922;-84
2023/05/16 06:38:05;;;;;;;;;;;9.90;64.00;;;;;;4130771;28;19940;-85
2023/05/16 06:40:33;;;;;;;;;;;10.00;63.70;;;;;;4124009;28;19920;-84
2023/05/16 06:42:57;;;;;;;;;;;10.00;63.80;;;;;;4137525;28;20397;-84
2023/05/16 06:45:17;;;;;;;;;;;10.00;63.00;;;;;;4140938;28;19918;-83
2023/05/16 06:47:41;;;;;;;;;;;10.10;63.00;;;;;;4132230;28;19922;-84
2023/05/16 06:50:05;;;;;;;;;;;10.00;62.80;;;;;;4152523;28;19925;-83
2023/05/16 06:52:35;;;;;;;;;;;10.10;62.60;;;;;;4150321;28;19980;-83
2023/05/16 06:54:56;;;;;;;;;;;10.10;62.50;;;;;;4149405;28;20013;-84
2023/05/16 06:57:16;;;;;;;;;;;10.10;62.70;;;;;;4146253;28;19927;-84
2023/05/16 06:59:37;;;;;;;;;;;10.20;62.60;;;;;;4156985;28;19926;-86
2023/05/16 07:02:00;;;;;;;;;;;10.20;62.50;;;;;;4151588;28;20023;-83
2023/05/16 07:04:21;;;;;;;;;;;10.10;62.20;;;;;;4140753;28;19935;-83
2023/05/16 07:06:41;;;;;;;;;;;10.20;62.40;;;;;;4131400;28;19929;-84
2023/05/16 07:08:42;;;;;;;;;;;10.10;62.40;;;;;;4126061;28;19914;-82
2023/05/16 07:10:43;;;;;;;;;;;10.10;62.50;;;;;;4125118;28;20507;-84
2023/05/16 07:12:44;;;;;;;;;;;10.10;62.50;;;;;;4107058;28;19918;-83
2023/05/16 07:14:55;;;;;;;;;;;;;;;;;;;;;
2023/05/16 07:17:11;;;;;;;;;;;10.10;62.40;;;;;;4118260;28;19918;-84
2023/05/16 07:19:25;;;;;;;;;;;10.20;62.40;;;;;;4111414;28;19917;-84
2023/05/16 07:21:25;;;;;;;;;;;10.20;62.50;;;;;;4118398;28;19925;-84
2023/05/16 07:23:26;;;;;;;;;;;10.20;62.70;;;;;;4119012;28;20004;-84
2023/05/16 07:25:27;;;;;;;;;;;10.20;62.70;;;;;;4121783;28;19922;-83
2023/05/16 07:27:48;;;;;;;;;;;10.20;62.50;;;;;;4116968;28;19925;-85
2023/05/16 07:29:49;;;;;;;;;;;10.30;62.50;;;;;;4116796;28;20814;-85
2023/05/16 07:32:10;;;;;;;;;;;10.30;62.50;;;;;;4118739;28;19922;-85
2023/05/16 07:34:31;;;;;;;;;;;10.10;61.60;;;;;;4134527;28;19917;-85
2023/05/16 07:36:55;;;;;;;;;;;10.10;61.60;;;;;;4118097;28;19922;-83
2023/05/16 07:38:58;;;;;;;;;;;10.10;61.50;;;;;;4103455;28;19918;-84
2023/05/16 07:41:24;;;;;;;;;;;10.20;62.00;;;;;;4133570;28;19913;-83
2023/05/16 07:43:54;;;;;;;;;;;10.20;62.40;;;;;;4121712;28;19913;-83
2023/05/16 07:46:20;;;;;;;;;;;10.10;62.20;;;;;;4139528;28;19925;-85
2023/05/16 07:48:48;;;;;;;;;;;10.20;62.50;;;;;;4128314;28;19922;-84
2023/05/16 07:51:08;;;;;;;;;;;10.10;62.80;;;;;;4127632;28;20398;-85
2023/05/16 07:53:29;;;;;;;;;;;10.10;62.60;;;;;;4138804;28;20774;-85
2023/05/16 07:55:53;;;;;;;;;;;10.10;62.60;;;;;;4140347;28;19984;-84
2023/05/16 07:57:54;;;;;;;;;;;10.00;62.40;;;;;;4139387;28;20256;-83
2023/05/16 07:59:58;;;;;;;;;;;10.00;62.50;;;;;;4115676;28;19946;-84
2023/05/16 08:02:20;;;;;;;;;;;10.00;62.60;;;;;;4138093;28;19992;-83
2023/05/16 08:04:29;;;;;;;;;;;10.00;62.70;;;;;;4138468;28;19929;-86
2023/05/16 08:06:39;;;;;;;;;;;10.10;63.20;;;;;;4104447;28;19922;-83
2023/05/16 08:08:40;;;;;;;;;;;10.00;63.00;;;;;;4114183;28;19922;-84
2023/05/16 08:10:44;;;;;;;;;;;10.00;63.00;;;;;;4106861;28;19918;-84
2023/05/16 08:12:54;;;;;;;;;;;10.10;63.00;;;;;;4119125;28;19937;-85
2023/05/16 08:15:12;;;;;;;;;;;10.10;63.10;;;;;;4120499;28;20086;-85
2023/05/16 08:20:10;;;;;;;;;;;10.20;62.80;;;;;;4103927;28;20748;-84
2023/05/16 08:22:18;;;;;;;;;;;10.20;62.40;;;;;;4120280;28;19922;-84
2023/05/16 08:24:25;;;;;;;;;;;10.20;62.30;;;;;;4134088;28;20331;-83
2023/05/16 08:26:29;;;;;;;;;;;10.40;62.30;;;;;;4115003;28;19932;-85
2023/05/16 08:28:53;;;;;;;;;;;10.40;61.70;;;;;;4138199;28;19984;-84
2023/05/16 08:30:57;;;;;;;;;;;10.40;60.90;;;;;;4112530;28;19921;-84
2023/05/16 08:32:57;;;;;;;;;;;10.50;60.70;;;;;;4133747;28;19918;-84
2023/05/16 08:35:27;;;;;;;;;;;10.40;60.40;;;;;;4134537;28;19917;-84
2023/05/16 08:37:28;;;;;;;;;;;10.50;60.30;;;;;;4124688;28;19944;-83
2023/05/16 08:39:37;;;;;;;;;;;10.50;60.50;;;;;;4109513;28;19921;-82
2023/05/16 08:41:38;;;;;;;;;;;10.50;60.20;;;;;;4130950;28;20389;-84
2023/05/16 08:43:47;;;;;;;;;;;10.60;60.10;;;;;;4118707;28;19961;-83
2023/05/16 08:46:01;;;;;;;;;;;10.50;59.90;;;;;;4122704;28;19933;-84
2023/05/16 08:48:08;;;;;;;;;;;10.60;59.80;;;;;;4102894;28;19930;-83
2023/05/16 08:50:34;;;;;;;;;;;10.50;59.80;;;;;;4138860;28;20446;-83
2023/05/16 08:52:57;;;;;;;;;;;10.50;60.10;;;;;;4122478;28;20400;-84
2023/05/16 08:58:03;;;;;;;;;;;10.50;59.80;;;;;;4139298;28;20251;-83
2023/05/16 09:02:50;;;;;;;;;;;10.40;60.10;;;;;;4144526;23;20288;-85
2023/05/16 09:13:04;;;;;;;;;;;10.30;60.10;;;;;;4487271;22;19944;-85
2023/05/16 09:15:20;;;;;;;;;;;10.30;60.00;;;;;;4120919;28;19961;-84
2023/05/16 09:20:45;;;;;;;;;;;10.40;59.90;;;;;;4028803;29;19919;-84
2023/05/16 09:22:57;;;;;;;;;;;10.30;59.60;;;;;;4045430;29;19923;-86
2023/05/16 09:24:58;;;;;;;;;;;10.30;59.70;;;;;;4113577;28;20103;-84
2023/05/16 09:27:14;;;;;;;;;;;10.30;59.70;;;;;;4106449;28;19958;-84
2023/05/16 09:29:15;;;;;;;;;;;10.30;59.80;;;;;;4116274;28;20006;-84
2023/05/16 09:31:25;;;;;;;;;;;10.30;59.90;;;;;;4147795;23;19934;-83
2023/05/16 09:33:26;;;;;;;;;;;10.30;60.20;;;;;;4121113;28;19925;-83
2023/05/16 09:35:27;;;;;;;;;;;10.30;60.20;;;;;;4107362;28;20021;-83
2023/05/16 09:37:34;;;;;;;;;;;10.30;60.10;;;;;;4093147;28;20237;-83
2023/05/16 09:39:57;;;;;;;;;;;10.30;60.00;;;;;;4113746;28;19918;-83
2023/05/16 09:41:58;;;;;;;;;;;10.30;60.00;;;;;;4114728;28;19937;-83
2023/05/16 09:44:11;;;;;;;;;;;10.40;60.20;;;;;;4099596;28;19922;-84
2023/05/16 09:46:46;;;;;;;;;;;10.40;60.10;;;;;;4117323;28;20030;-84
2023/05/16 09:49:23;;;;;;;;;;;10.30;60.10;;;;;;4121011;28;20018;-83
2023/05/16 09:51:27;;;;;;;;;;;10.20;60.10;;;;;;4120900;28;19918;-83
2023/05/16 09:53:34;;;;;;;;;;;10.20;60.30;;;;;;4121521;28;20003;-84
2023/05/16 09:55:35;;;;;;;;;;;10.20;60.50;;;;;;4103439;28;20079;-84
2023/05/16 09:57:37;;;;;;;;;;;10.10;60.30;;;;;;4102380;28;20332;-83
2023/05/16 09:59:39;;;;;;;;;;;10.30;60.50;;;;;;4130424;28;19914;-83
2023/05/16 10:01:45;;;;;;;;;;;10.20;60.50;;;;;;4099561;28;20394;-84
2023/05/16 10:03:49;;;;;;;;;;;10.20;60.50;;;;;;4132899;28;19921;-84
2023/05/16 10:06:25;;;;;;;;;;;10.20;60.70;;;;;;4117877;28;19956;-84
2023/05/16 10:08:26;;;;;;;;;;;10.30;61.00;;;;;;4118516;28;19922;-84
2023/05/16 10:10:49;;;;;;;;;;;10.20;61.10;;;;;;4112342;28;20155;-85
2023/05/16 10:13:10;;;;;;;;;;;10.10;61.00;;;;;;4104979;28;19966;-84
2023/05/16 10:15:38;;;;;;;;;;;10.10;61.00;;;;;;4106934;28;19919;-83
2023/05/16 10:17:59;;;;;;;;;;;10.30;61.00;;;;;;4120181;28;20177;-84
2023/05/16 10:20:24;;;;;;;;;;;10.20;61.10;;;;;;4115725;28;21834;-83
2023/05/16 10:22:48;;;;;;;;;;;10.20;61.10;;;;;;4106947;28;20339;-83
2023/05/16 10:25:43;;;;;;;;;;;10.20;61.20;;;;;;4109037;28;20010;-83
2023/05/16 10:28:26;;;;;;;;;;;10.20;61.40;;;;;;4073180;29;20494;-84
2023/05/16 10:30:50;;;;;;;;;;;10.30;61.30;;;;;;4083929;29;19919;-82
2023/05/16 10:32:55;;;;;;;;;;;10.20;61.00;;;;;;4080680;28;20009;-82
2023/05/16 10:35:27;;;;;;;;;;;10.30;61.00;;;;;;4120065;28;20482;-84
2023/05/16 10:37:51;;;;;;;;;;;10.30;61.10;;;;;;4117442;28;19920;-84
2023/05/16 10:40:12;;;;;;;;;;;10.30;61.10;;;;;;4116341;28;20283;-84
2023/05/16 10:42:43;;;;;;;;;;;10.30;61.00;;;;;;4110472;28;19965;-83
2023/05/16 10:45:17;;;;;;;;;;;10.30;61.00;;;;;;4113750;28;20299;-83
2023/05/16 10:47:37;;;;;;;;;;;10.30;60.80;;;;;;4105496;28;20026;-84
2023/05/16 10:50:07;;;;;;;;;;;10.20;60.60;;;;;;4108219;28;20031;-83
2023/05/16 10:52:09;;;;;;;;;;;10.30;60.80;;;;;;4083502;29;19919;-83
2023/05/16 10:54:41;;;;;;;;;;;10.10;60.50;;;;;;4112980;28;19928;-83
2023/05/16 10:56:44;;;;;;;;;;;10.30;60.70;;;;;;4091191;28;19949;-84
2023/05/16 10:58:54;;;;;;;;;;;10.20;60.80;;;;;;4090565;28;19918;-82
2023/05/16 11:01:22;;;;;;;;;;;10.30;60.80;;;;;;4088417;28;20322;-83
2023/05/16 11:03:44;;;;;;;;;;;10.30;61.00;;;;;;4106796;28;19921;-85
2023/05/16 11:05:53;;;;;;;;;;;10.20;61.10;;;;;;4091024;28;20307;-83
2023/05/16 11:08:25;;;;;;;;;;;10.30;61.40;;;;;;4122882;28;19917;-84
2023/05/16 11:10:51;;;;;;;;;;;10.30;61.30;;;;;;4109012;28;19929;-83
2023/05/16 11:12:53;;;;;;;;;;;10.30;61.10;;;;;;4084815;28;19946;-84
2023/05/16 11:15:18;;;;;;;;;;;10.30;61.10;;;;;;4101625;28;20355;-84
2023/05/16 11:17:21;;;;;;;;;;;10.20;61.20;;;;;;4091274;28;19918;-82
2023/05/16 11:20:02;;;;;;;;;;;10.10;60.90;;;;;;4109394;28;20027;-84
2023/05/16 11:22:40;;;;;;;;;;;10.20;60.90;;;;;;4111148;28;20348;-84
2023/05/16 11:25:04;;;;;;;;;;;10.20;60.80;;;;;;4112841;28;19918;-84
2023/05/16 11:27:30;;;;;;;;;;;10.20;61.00;;;;;;4112662;28;20004;-82
2023/05/16 11:29:51;;;;;;;;;;;10.20;60.90;;;;;;4108773;28;19918;-84
2023/05/16 11:32:12;;;;;;;;;;;10.20;60.90;;;;;;4108102;28;19917;-82
2023/05/16 11:34:22;;;;;;;;;;;10.20;61.10;;;;;;4107596;28;19925;-85
2023/05/16 11:36:24;;;;;;;;;;;10.30;61.00;;;;;;4089766;28;19918;-83
2023/05/16 11:38:42;;;;;;;;;;;10.20;61.20;;;;;;4106052;28;19919;-83
2023/05/16 11:40:59;;;;;;;;;;;10.20;61.30;;;;;;4086591;28;19968;-82
2023/05/16 11:43:08;;;;;;;;;;;10.20;61.50;;;;;;4090926;28;19923;-85
2023/05/16 11:45:29;;;;;;;;;;;10.20;61.20;;;;;;4107946;28;19917;-84
2023/05/16 11:47:50;;;;;;;;;;;10.20;60.90;;;;;;4107860;28;19999;-83
2023/05/16 11:50:17;;;;;;;;;;;10.30;60.80;;;;;;4106553;28;20987;-83
2023/05/16 11:56:03;;;;;;;;;;;10.20;60.80;;;;;;4094998;28;20020;-84
2023/05/16 11:58:57;;;;;;;;;;;10.20;60.80;;;;;;4101506;28;19969;-83
2023/05/16 12:01:47;;;;;;;;;;;10.10;60.60;;;;;;4103545;28;20108;-84
2023/05/16 12:06:22;;;;;;;;;;;10.30;60.80;;;;;;4080566;28;19977;-84
2023/05/16 12:08:26;;;;;;;;;;;10.20;61.10;;;;;;4083763;28;22293;-84
2023/05/16 12:10:30;;;;;;;;;;;10.20;61.00;;;;;;4075279;29;20006;-84
2023/05/16 12:12:34;;;;;;;;;;;10.20;60.90;;;;;;4063674;29;19918;-83
2023/05/16 12:14:35;;;;;;;;;;;10.20;61.10;;;;;;4067677;29;20013;-83
2023/05/16 12:16:49;;;;;;;;;;;10.20;61.10;;;;;;4072014;29;20434;-83
2023/05/16 12:18:58;;;;;;;;;;;10.30;61.30;;;;;;4065196;29;20401;-83
2023/05/16 12:21:01;;;;;;;;;;;10.20;62.50;;;;;;4049506;29;19962;-83
2023/05/16 12:23:15;;;;;;;;;;;10.20;63.00;;;;;;4069656;29;19923;-84
2023/05/16 12:25:40;;;;;;;;;;;10.10;63.40;;;;;;4083562;28;20405;-84
2023/05/16 12:28:25;;;;;;;;;;;10.10;63.40;;;;;;4102386;28;20104;-84
2023/05/16 12:30:46;;;;;;;;;;;10.10;63.20;;;;;;4100565;28;19989;-84
2023/05/16 12:33:12;;;;;;;;;;;10.10;63.30;;;;;;4086738;28;19926;-84
2023/05/16 12:35:39;;;;;;;;;;;10.00;63.50;;;;;;4100073;28;19922;-84
2023/05/16 12:38:03;;;;;;;;;;;10.00;63.30;;;;;;4099117;28;19930;-83
2023/05/16 12:40:28;;;;;;;;;;;10.00;63.70;;;;;;4103104;28;19933;-82
2023/05/16 12:42:29;;;;;;;;;;;10.00;63.80;;;;;;4069401;29;19922;-84
2023/05/16 12:44:59;;;;;;;;;;;10.10;63.90;;;;;;4078145;28;19922;-83
2023/05/16 12:47:46;;;;;;;;;;;10.00;64.50;;;;;;4085983;28;20478;-83
2023/05/16 12:49:47;;;;;;;;;;;10.10;64.80;;;;;;4095468;28;20014;-82
2023/05/16 12:52:07;;;;;;;;;;;;;;;;;;;;;
2023/05/16 12:57:22;;;;;;;;;;;9.80;66.10;;;;;;4100250;28;19965;-83
2023/05/16 13:02:36;;;;;;;;;;;10.00;65.60;;;;;;4104376;28;19992;-84
2023/05/16 13:05:41;;;;;;;;;;;10.00;65.90;;;;;;4091661;28;20541;-83
2023/05/16 13:08:08;;;;;;;;;;;10.00;65.70;;;;;;4074182;28;19926;-84
2023/05/16 13:10:29;;;;;;;;;;;10.00;65.40;;;;;;4085075;28;19981;-84
2023/05/16 13:12:50;;;;;;;;;;;10.10;66.70;;;;;;4097240;28;20119;-86
2023/05/16 13:15:13;;;;;;;;;;;10.00;66.30;;;;;;4100452;28;19922;-84
2023/05/16 13:17:35;;;;;;;;;;;10.00;66.10;;;;;;4087616;28;19919;-85
2023/05/16 13:19:58;;;;;;;;;;;10.00;65.70;;;;;;4094120;28;19949;-83
2023/05/16 13:22:43;;;;;;;;;;;10.10;65.60;;;;;;4098755;28;19957;-84
2023/05/16 13:24:49;;;;;;;;;;;10.00;65.50;;;;;;4064896;29;19923;-84
2023/05/16 13:27:21;;;;;;;;;;;10.10;65.70;;;;;;4080498;28;19949;-84
2023/05/16 13:29:51;;;;;;;;;;;10.00;65.30;;;;;;4080317;28;19922;-84
2023/05/16 13:32:23;;;;;;;;;;;10.00;65.20;;;;;;4200642;23;19934;-82
2023/05/16 13:35:20;;;;;;;;;;;10.00;65.00;;;;;;4116146;28;21437;-84
2023/05/16 13:37:47;;;;;;;;;;;10.00;65.10;;;;;;4097294;28;19922;-82
2023/05/16 13:40:09;;;;;;;;;;;10.00;64.80;;;;;;4115142;28;19922;-83
2023/05/16 13:42:29;;;;;;;;;;;10.00;64.80;;;;;;4111283;28;19922;-84
2023/05/16 13:45:21;;;;;;;;;;;;;;;;;;;;;
2023/05/16 13:47:45;;;;;;;;;;;10.10;65.30;;;;;;4112774;28;19929;-82